sensor_id;sensor_type;location;lat;lon;timestamp;temperature;humidity
22161;DHT22;49035;48.812;11.762;2023-04-24T00:02:10;10.60;99.90
22161;DHT22;49035;48.812;11.762;2023-04-24T00:04:37;10.60;99.90
22161;DHT22;49035;48.812;11.762;2023-04-24T00:07:06;10.60;99.90
22161;DHT22;49035;48.812;11.762;2023-04-24T00:09:32;10.60;99.90
22161;DHT22;49035;48.812;11.762;2023-04-24T00:11:57;10.50;99.90
22161;DHT22;49035;48.812;11.762;2023-04-24T00:14:23;10.50;99.90
22161;DHT22;49035;48.812;11.762;2023-04-24T00:16:49;10.50;99.90
22161;DHT22;49035;48.812;11.762;2023-04-24T00:19:14;10.50;99.90
22161;DHT22;49035;48.812;11.762;2023-04-24T00:21:40;10.50;99.90
22161;DHT22;49035;48.812;11.762;2023-04-24T00:24:06;10.40;99.90
22161;DHT22;49035;48.812;11.762;2023-04-24T00:26:34;10.40;99.90
22161;DHT22;49035;48.812;11.762;2023-04-24T00:28:59;10.50;99.90
22161;DHT22;49035;48.812;11.762;2023-04-24T00:31:25;10.40;99.90
22161;DHT22;49035;48.812;11.762;2023-04-24T00:33:51;10.40;99.90
22161;DHT22;49035;48.812;11.762;2023-04-24T00:36:16;10.40;99.90
22161;DHT22;49035;48.812;11.762;2023-04-24T00:38:44;10.40;99.90
22161;DHT22;49035;48.812;11.762;2023-04-24T00:41:10;10.40;99.90
22161;DHT22;49035;48.812;11.762;2023-04-24T00:43:35;10.30;99.90
22161;DHT22;49035;48.812;11.762;2023-04-24T00:46:01;10.30;99.90
22161;DHT22;49035;48.812;11.762;2023-04-24T00:48:27;10.30;99.90
22161;DHT22;49035;48.812;11.762;2023-04-24T00:50:53;10.30;99.90
22161;DHT22;49035;48.812;11.762;2023-04-24T00:53:19;10.30;99.90
22161;DHT22;49035;48.812;11.762;2023-04-24T00:55:45;10.30;99.90
22161;DHT22;49035;48.812;11.762;2023-04-24T00:58:11;10.30;99.90
22161;DHT22;49035;48.812;11.762;2023-04-24T01:00:37;10.30;99.90
22161;DHT22;49035;48.812;11.762;2023-04-24T01:03:04;10.20;99.90
22161;DHT22;49035;48.812;11.762;2023-04-24T01:05:31;10.20;99.90
22161;DHT22;49035;48.812;11.762;2023-04-24T01:07:58;10.20;99.90
22161;DHT22;49035;48.812;11.762;2023-04-24T01:10:25;10.30;99.90
22161;DHT22;49035;48.812;11.762;2023-04-24T01:12:53;10.20;99.90
22161;DHT22;49035;48.812;11.762;2023-04-24T01:15:18;10.30;99.90
22161;DHT22;49035;48.812;11.762;2023-04-24T01:17:44;10.20;99.90
22161;DHT22;49035;48.812;11.762;2023-04-24T01:20:10;10.20;99.90
22161;DHT22;49035;48.812;11.762;2023-04-24T01:22:36;10.20;99.90
22161;DHT22;49035;48.812;11.762;2023-04-24T01:25:02;10.10;99.90
22161;DHT22;49035;48.812;11.762;2023-04-24T01:27:28;10.10;99.90
22161;DHT22;49035;48.812;11.762;2023-04-24T01:29:54;10.10;99.90
22161;DHT22;49035;48.812;11.762;2023-04-24T01:32:19;10.10;99.90
22161;DHT22;49035;48.812;11.762;2023-04-24T01:34:46;10.10;99.90
22161;DHT22;49035;48.812;11.762;2023-04-24T01:37:12;10.10;99.90
22161;DHT22;49035;48.812;11.762;2023-04-24T01:39:37;10.10;99.90
22161;DHT22;49035;48.812;11.762;2023-04-24T01:42:04;10.10;99.90
22161;DHT22;49035;48.812;11.762;2023-04-24T01:44:31;10.10;99.90
22161;DHT22;49035;48.812;11.762;2023-04-24T01:46:56;10.10;99.90
22161;DHT22;49035;48.812;11.762;2023-04-24T01:49:22;10.10;99.90
22161;DHT22;49035;48.812;11.762;2023-04-24T01:51:49;10.10;99.90
22161;DHT22;49035;48.812;11.762;2023-04-24T01:54:14;10.00;99.90
22161;DHT22;49035;48.812;11.762;2023-04-24T01:56:43;10.00;99.90
22161;DHT22;49035;48.812;11.762;2023-04-24T01:59:12;10.00;99.90
22161;DHT22;49035;48.812;11.762;2023-04-24T02:01:38;10.00;99.90
22161;DHT22;49035;48.812;11.762;2023-04-24T02:04:05;9.90;99.90
22161;DHT22;49035;48.812;11.762;2023-04-24T02:06:31;10.00;99.90
22161;DHT22;49035;48.812;11.762;2023-04-24T02:09:00;10.00;99.90
22161;DHT22;49035;48.812;11.762;2023-04-24T02:11:26;9.90;99.90
22161;DHT22;49035;48.812;11.762;2023-04-24T02:13:52;10.00;99.90
22161;DHT22;49035;48.812;11.762;2023-04-24T02:16:18;9.90;99.90
22161;DHT22;49035;48.812;11.762;2023-04-24T02:18:44;9.90;99.90
22161;DHT22;49035;48.812;11.762;2023-04-24T02:21:10;9.90;99.90
22161;DHT22;49035;48.812;11.762;2023-04-24T02:23:36;9.90;99.90
22161;DHT22;49035;48.812;11.762;2023-04-24T02:26:01;9.80;99.90
22161;DHT22;49035;48.812;11.762;2023-04-24T02:28:27;9.80;99.90
22161;DHT22;49035;48.812;11.762;2023-04-24T02:30:53;9.70;99.90
22161;DHT22;49035;48.812;11.762;2023-04-24T02:33:18;9.70;99.90
22161;DHT22;49035;48.812;11.762;2023-04-24T02:35:44;9.70;99.90
22161;DHT22;49035;48.812;11.762;2023-04-24T02:38:09;9.60;99.90
22161;DHT22;49035;48.812;11.762;2023-04-24T02:40:35;9.60;99.90
22161;DHT22;49035;48.812;11.762;2023-04-24T02:43:01;9.60;99.90
22161;DHT22;49035;48.812;11.762;2023-04-24T02:45:26;9.50;99.90
22161;DHT22;49035;48.812;11.762;2023-04-24T02:47:52;9.50;99.90
22161;DHT22;49035;48.812;11.762;2023-04-24T02:50:17;9.50;99.90
22161;DHT22;49035;48.812;11.762;2023-04-24T02:52:43;9.50;99.90
22161;DHT22;49035;48.812;11.762;2023-04-24T02:55:08;9.50;99.90
22161;DHT22;49035;48.812;11.762;2023-04-24T02:57:34;9.40;99.90
22161;DHT22;49035;48.812;11.762;2023-04-24T03:00:00;9.40;99.90
22161;DHT22;49035;48.812;11.762;2023-04-24T03:02:25;9.40;99.90
22161;DHT22;49035;48.812;11.762;2023-04-24T03:04:51;9.30;99.90
22161;DHT22;49035;48.812;11.762;2023-04-24T03:07:16;9.40;99.90
22161;DHT22;49035;48.812;11.762;2023-04-24T03:09:42;9.40;99.90
22161;DHT22;49035;48.812;11.762;2023-04-24T03:12:08;9.40;99.90
22161;DHT22;49035;48.812;11.762;2023-04-24T03:14:33;9.40;99.90
22161;DHT22;49035;48.812;11.762;2023-04-24T03:17:00;9.40;99.90
22161;DHT22;49035;48.812;11.762;2023-04-24T03:19:25;9.40;99.90
22161;DHT22;49035;48.812;11.762;2023-04-24T03:21:51;9.40;99.90
22161;DHT22;49035;48.812;11.762;2023-04-24T03:24:16;9.50;99.90
22161;DHT22;49035;48.812;11.762;2023-04-24T03:26:42;9.50;99.90
22161;DHT22;49035;48.812;11.762;2023-04-24T03:29:08;9.50;99.90
22161;DHT22;49035;48.812;11.762;2023-04-24T03:31:33;9.40;99.90
22161;DHT22;49035;48.812;11.762;2023-04-24T03:33:59;9.40;99.90
22161;DHT22;49035;48.812;11.762;2023-04-24T03:36:24;9.50;99.90
22161;DHT22;49035;48.812;11.762;2023-04-24T03:38:51;9.40;99.90
22161;DHT22;49035;48.812;11.762;2023-04-24T03:41:17;9.50;99.90
22161;DHT22;49035;48.812;11.762;2023-04-24T03:43:42;9.50;99.90
22161;DHT22;49035;48.812;11.762;2023-04-24T03:46:08;9.50;99.90
22161;DHT22;49035;48.812;11.762;2023-04-24T03:48:35;9.50;99.90
22161;DHT22;49035;48.812;11.762;2023-04-24T03:51:00;9.50;99.90
22161;DHT22;49035;48.812;11.762;2023-04-24T03:53:26;9.50;99.90
22161;DHT22;49035;48.812;11.762;2023-04-24T03:55:53;9.50;99.90
22161;DHT22;49035;48.812;11.762;2023-04-24T03:58:18;9.50;99.90
22161;DHT22;49035;48.812;11.762;2023-04-24T04:00:44;9.50;99.90
22161;DHT22;49035;48.812;11.762;2023-04-24T04:03:11;9.50;99.90
22161;DHT22;49035;48.812;11.762;2023-04-24T04:05:39;9.50;99.90
22161;DHT22;49035;48.812;11.762;2023-04-24T04:08:04;9.50;99.90
22161;DHT22;49035;48.812;11.762;2023-04-24T04:10:30;9.50;99.90
22161;DHT22;49035;48.812;11.762;2023-04-24T04:12:55;9.50;99.90
22161;DHT22;49035;48.812;11.762;2023-04-24T04:15:21;9.50;99.90
22161;DHT22;49035;48.812;11.762;2023-04-24T04:17:46;9.50;99.90
22161;DHT22;49035;48.812;11.762;2023-04-24T04:20:12;9.50;99.90
22161;DHT22;49035;48.812;11.762;2023-04-24T04:22:38;9.40;99.90
22161;DHT22;49035;48.812;11.762;2023-04-24T04:25:05;9.40;99.90
22161;DHT22;49035;48.812;11.762;2023-04-24T04:27:31;9.40;99.90
22161;DHT22;49035;48.812;11.762;2023-04-24T04:30:01;9.40;99.90
22161;DHT22;49035;48.812;11.762;2023-04-24T04:32:31;9.30;99.90
22161;DHT22;49035;48.812;11.762;2023-04-24T04:34:56;9.40;99.90
22161;DHT22;49035;48.812;11.762;2023-04-24T04:37:22;9.40;99.90
22161;DHT22;49035;48.812;11.762;2023-04-24T04:39:47;9.40;99.90
22161;DHT22;49035;48.812;11.762;2023-04-24T04:42:13;9.40;99.90
22161;DHT22;49035;48.812;11.762;2023-04-24T04:44:39;9.40;99.90
22161;DHT22;49035;48.812;11.762;2023-04-24T04:47:05;9.40;99.90
22161;DHT22;49035;48.812;11.762;2023-04-24T04:49:31;9.40;99.90
22161;DHT22;49035;48.812;11.762;2023-04-24T04:51:57;9.50;99.90
22161;DHT22;49035;48.812;11.762;2023-04-24T04:54:23;9.50;99.90
22161;DHT22;49035;48.812;11.762;2023-04-24T04:56:51;9.40;99.90
22161;DHT22;49035;48.812;11.762;2023-04-24T04:59:17;9.40;99.90
22161;DHT22;49035;48.812;11.762;2023-04-24T05:01:43;9.50;99.90
22161;DHT22;49035;48.812;11.762;2023-04-24T05:04:08;9.50;99.90
22161;DHT22;49035;48.812;11.762;2023-04-24T05:06:34;9.50;99.90
22161;DHT22;49035;48.812;11.762;2023-04-24T05:08:59;9.50;99.90
22161;DHT22;49035;48.812;11.762;2023-04-24T05:11:25;9.60;99.90
22161;DHT22;49035;48.812;11.762;2023-04-24T05:13:50;9.70;99.90
22161;DHT22;49035;48.812;11.762;2023-04-24T05:16:16;9.70;99.90
22161;DHT22;49035;48.812;11.762;2023-04-24T05:18:41;9.70;99.90
22161;DHT22;49035;48.812;11.762;2023-04-24T05:21:07;9.80;99.90
22161;DHT22;49035;48.812;11.762;2023-04-24T05:23:33;9.80;99.90
22161;DHT22;49035;48.812;11.762;2023-04-24T05:25:58;9.80;99.90
22161;DHT22;49035;48.812;11.762;2023-04-24T05:28:24;9.90;99.90
22161;DHT22;49035;48.812;11.762;2023-04-24T05:30:54;9.90;99.90
22161;DHT22;49035;48.812;11.762;2023-04-24T05:33:21;10.00;99.90
22161;DHT22;49035;48.812;11.762;2023-04-24T05:35:48;10.10;99.90
22161;DHT22;49035;48.812;11.762;2023-04-24T05:38:14;10.10;99.90
22161;DHT22;49035;48.812;11.762;2023-04-24T05:40:42;10.20;99.90
22161;DHT22;49035;48.812;11.762;2023-04-24T05:43:08;10.20;99.90
22161;DHT22;49035;48.812;11.762;2023-04-24T05:45:34;10.20;99.90
22161;DHT22;49035;48.812;11.762;2023-04-24T05:48:01;10.20;99.90
22161;DHT22;49035;48.812;11.762;2023-04-24T05:50:27;10.30;99.90
22161;DHT22;49035;48.812;11.762;2023-04-24T05:52:52;10.30;99.90
22161;DHT22;49035;48.812;11.762;2023-04-24T05:55:19;10.30;99.90
22161;DHT22;49035;48.812;11.762;2023-04-24T05:57:44;10.40;99.90
22161;DHT22;49035;48.812;11.762;2023-04-24T06:00:10;10.50;99.90
22161;DHT22;49035;48.812;11.762;2023-04-24T06:02:38;10.60;99.90
22161;DHT22;49035;48.812;11.762;2023-04-24T06:05:04;10.60;99.90
22161;DHT22;49035;48.812;11.762;2023-04-24T06:07:30;10.70;99.90
22161;DHT22;49035;48.812;11.762;2023-04-24T06:09:56;10.80;99.90
22161;DHT22;49035;48.812;11.762;2023-04-24T06:12:22;10.90;99.90
22161;DHT22;49035;48.812;11.762;2023-04-24T06:14:48;11.00;99.90
22161;DHT22;49035;48.812;11.762;2023-04-24T06:17:14;11.20;99.90
22161;DHT22;49035;48.812;11.762;2023-04-24T06:19:40;11.30;99.90
22161;DHT22;49035;48.812;11.762;2023-04-24T06:22:06;11.50;99.90
22161;DHT22;49035;48.812;11.762;2023-04-24T06:24:31;11.70;99.90
22161;DHT22;49035;48.812;11.762;2023-04-24T06:26:57;11.90;99.90
22161;DHT22;49035;48.812;11.762;2023-04-24T06:29:25;11.90;99.90
22161;DHT22;49035;48.812;11.762;2023-04-24T06:31:50;11.90;99.90
22161;DHT22;49035;48.812;11.762;2023-04-24T06:34:16;12.10;99.90
22161;DHT22;49035;48.812;11.762;2023-04-24T06:36:41;12.20;99.90
22161;DHT22;49035;48.812;11.762;2023-04-24T06:39:07;12.30;99.90
22161;DHT22;49035;48.812;11.762;2023-04-24T06:41:33;12.50;99.90
22161;DHT22;49035;48.812;11.762;2023-04-24T06:43:58;12.60;99.90
22161;DHT22;49035;48.812;11.762;2023-04-24T06:46:24;12.70;99.90
22161;DHT22;49035;48.812;11.762;2023-04-24T06:48:52;12.90;99.90
22161;DHT22;49035;48.812;11.762;2023-04-24T06:51:17;13.00;99.90
22161;DHT22;49035;48.812;11.762;2023-04-24T06:53:43;13.00;99.90
22161;DHT22;49035;48.812;11.762;2023-04-24T06:56:09;12.90;99.90
22161;DHT22;49035;48.812;11.762;2023-04-24T06:58:38;12.80;99.90
22161;DHT22;49035;48.812;11.762;2023-04-24T07:01:03;12.70;99.90
22161;DHT22;49035;48.812;11.762;2023-04-24T07:03:29;12.80;99.90
22161;DHT22;49035;48.812;11.762;2023-04-24T07:05:55;12.90;99.90
22161;DHT22;49035;48.812;11.762;2023-04-24T07:08:20;12.90;99.90
22161;DHT22;49035;48.812;11.762;2023-04-24T07:10:48;13.00;99.90
22161;DHT22;49035;48.812;11.762;2023-04-24T07:13:14;13.10;99.90
22161;DHT22;49035;48.812;11.762;2023-04-24T07:15:40;13.10;99.90
22161;DHT22;49035;48.812;11.762;2023-04-24T07:18:06;13.20;99.90
22161;DHT22;49035;48.812;11.762;2023-04-24T07:20:32;13.30;99.90
22161;DHT22;49035;48.812;11.762;2023-04-24T07:22:58;13.40;99.90
22161;DHT22;49035;48.812;11.762;2023-04-24T07:25:24;13.50;99.90
22161;DHT22;49035;48.812;11.762;2023-04-24T07:27:49;13.60;99.90
22161;DHT22;49035;48.812;11.762;2023-04-24T07:30:15;13.50;99.90
22161;DHT22;49035;48.812;11.762;2023-04-24T07:32:41;13.40;99.90
22161;DHT22;49035;48.812;11.762;2023-04-24T07:35:06;13.20;99.90
22161;DHT22;49035;48.812;11.762;2023-04-24T07:37:32;13.20;99.90
22161;DHT22;49035;48.812;11.762;2023-04-24T07:39:58;13.40;99.90
22161;DHT22;49035;48.812;11.762;2023-04-24T07:42:23;13.60;99.90
22161;DHT22;49035;48.812;11.762;2023-04-24T07:44:49;13.80;99.90
22161;DHT22;49035;48.812;11.762;2023-04-24T07:47:16;14.40;99.90
22161;DHT22;49035;48.812;11.762;2023-04-24T07:49:42;14.80;99.90
22161;DHT22;49035;48.812;11.762;2023-04-24T07:52:08;15.20;99.90
22161;DHT22;49035;48.812;11.762;2023-04-24T07:54:33;15.40;99.90
22161;DHT22;49035;48.812;11.762;2023-04-24T07:56:59;15.20;99.90
22161;DHT22;49035;48.812;11.762;2023-04-24T07:59:26;15.10;99.90
22161;DHT22;49035;48.812;11.762;2023-04-24T08:01:51;15.20;99.90
22161;DHT22;49035;48.812;11.762;2023-04-24T08:04:18;15.40;99.90
22161;DHT22;49035;48.812;11.762;2023-04-24T08:06:44;15.40;99.90
22161;DHT22;49035;48.812;11.762;2023-04-24T08:09:09;15.30;99.90
22161;DHT22;49035;48.812;11.762;2023-04-24T08:11:35;15.20;99.90
22161;DHT22;49035;48.812;11.762;2023-04-24T08:14:00;14.60;99.90
22161;DHT22;49035;48.812;11.762;2023-04-24T08:16:27;13.70;99.90
22161;DHT22;49035;48.812;11.762;2023-04-24T08:18:53;12.70;99.90
22161;DHT22;49035;48.812;11.762;2023-04-24T08:21:18;11.80;99.90
22161;DHT22;49035;48.812;11.762;2023-04-24T08:23:46;11.30;99.90
22161;DHT22;49035;48.812;11.762;2023-04-24T08:26:12;10.80;99.90
22161;DHT22;49035;48.812;11.762;2023-04-24T08:28:38;10.90;99.90
22161;DHT22;49035;48.812;11.762;2023-04-24T08:31:04;11.20;99.90
22161;DHT22;49035;48.812;11.762;2023-04-24T08:33:29;11.40;99.90
22161;DHT22;49035;48.812;11.762;2023-04-24T08:36:02;11.70;99.90
22161;DHT22;49035;48.812;11.762;2023-04-24T08:38:28;11.90;99.90
22161;DHT22;49035;48.812;11.762;2023-04-24T08:40:53;11.90;99.90
22161;DHT22;49035;48.812;11.762;2023-04-24T08:43:24;12.00;99.90
22161;DHT22;49035;48.812;11.762;2023-04-24T08:45:50;11.90;99.90
22161;DHT22;49035;48.812;11.762;2023-04-24T08:48:17;12.00;99.90
22161;DHT22;49035;48.812;11.762;2023-04-24T08:50:43;12.10;99.90
22161;DHT22;49035;48.812;11.762;2023-04-24T08:53:10;12.10;99.90
22161;DHT22;49035;48.812;11.762;2023-04-24T08:55:37;11.90;99.90
22161;DHT22;49035;48.812;11.762;2023-04-24T08:58:03;11.90;99.90
22161;DHT22;49035;48.812;11.762;2023-04-24T09:00:29;12.10;99.90
22161;DHT22;49035;48.812;11.762;2023-04-24T09:02:56;12.40;99.90
22161;DHT22;49035;48.812;11.762;2023-04-24T09:05:22;12.80;99.90
22161;DHT22;49035;48.812;11.762;2023-04-24T09:07:53;13.30;99.90
22161;DHT22;49035;48.812;11.762;2023-04-24T09:10:21;13.90;99.90
22161;DHT22;49035;48.812;11.762;2023-04-24T09:12:47;14.50;99.90
22161;DHT22;49035;48.812;11.762;2023-04-24T09:15:13;15.00;99.90
22161;DHT22;49035;48.812;11.762;2023-04-24T09:17:39;15.20;99.90
22161;DHT22;49035;48.812;11.762;2023-04-24T09:20:05;15.40;99.90
22161;DHT22;49035;48.812;11.762;2023-04-24T09:22:31;15.80;99.90
22161;DHT22;49035;48.812;11.762;2023-04-24T09:25:07;16.60;99.10
22161;DHT22;49035;48.812;11.762;2023-04-24T09:27:34;16.70;97.70
22161;DHT22;49035;48.812;11.762;2023-04-24T09:30:01;16.90;95.10
22161;DHT22;49035;48.812;11.762;2023-04-24T09:32:26;16.30;93.70
22161;DHT22;49035;48.812;11.762;2023-04-24T09:35:14;16.00;93.40
22161;DHT22;49035;48.812;11.762;2023-04-24T09:37:45;15.10;98.90
22161;DHT22;49035;48.812;11.762;2023-04-24T09:40:16;15.60;97.80
22161;DHT22;49035;48.812;11.762;2023-04-24T09:42:53;15.50;94.10
22161;DHT22;49035;48.812;11.762;2023-04-24T09:45:19;15.40;94.90
22161;DHT22;49035;48.812;11.762;2023-04-24T09:47:45;15.50;98.00
22161;DHT22;49035;48.812;11.762;2023-04-24T09:50:19;15.50;94.90
22161;DHT22;49035;48.812;11.762;2023-04-24T09:52:59;15.40;96.90
22161;DHT22;49035;48.812;11.762;2023-04-24T09:55:26;15.70;93.70
22161;DHT22;49035;48.812;11.762;2023-04-24T09:57:55;15.50;98.50
22161;DHT22;49035;48.812;11.762;2023-04-24T10:00:26;15.80;97.20
22161;DHT22;49035;48.812;11.762;2023-04-24T10:02:57;15.90;96.60
22161;DHT22;49035;48.812;11.762;2023-04-24T10:05:27;15.40;96.00
22161;DHT22;49035;48.812;11.762;2023-04-24T10:08:00;15.00;95.90
22161;DHT22;49035;48.812;11.762;2023-04-24T10:10:26;14.90;97.40
22161;DHT22;49035;48.812;11.762;2023-04-24T10:12:52;14.70;97.10
22161;DHT22;49035;48.812;11.762;2023-04-24T10:15:18;14.50;98.20
22161;DHT22;49035;48.812;11.762;2023-04-24T10:17:50;14.50;98.40
22161;DHT22;49035;48.812;11.762;2023-04-24T10:20:24;14.50;98.10
22161;DHT22;49035;48.812;11.762;2023-04-24T10:22:52;14.00;99.00
22161;DHT22;49035;48.812;11.762;2023-04-24T10:25:26;14.10;99.40
22161;DHT22;49035;48.812;11.762;2023-04-24T10:27:52;14.30;99.90
22161;DHT22;49035;48.812;11.762;2023-04-24T10:30:19;14.80;98.10
22161;DHT22;49035;48.812;11.762;2023-04-24T10:32:45;15.40;96.70
22161;DHT22;49035;48.812;11.762;2023-04-24T10:35:15;15.90;95.20
22161;DHT22;49035;48.812;11.762;2023-04-24T10:37:58;16.10;95.70
22161;DHT22;49035;48.812;11.762;2023-04-24T10:40:33;16.20;94.80
22161;DHT22;49035;48.812;11.762;2023-04-24T10:43:08;16.60;95.50
22161;DHT22;49035;48.812;11.762;2023-04-24T10:45:38;17.70;95.90
22161;DHT22;49035;48.812;11.762;2023-04-24T10:48:05;18.70;93.00
22161;DHT22;49035;48.812;11.762;2023-04-24T10:50:44;18.90;89.80
22161;DHT22;49035;48.812;11.762;2023-04-24T10:53:18;18.20;87.00
22161;DHT22;49035;48.812;11.762;2023-04-24T10:55:52;17.10;89.40
22161;DHT22;49035;48.812;11.762;2023-04-24T10:58:23;16.30;90.20
22161;DHT22;49035;48.812;11.762;2023-04-24T11:00:57;15.50;93.30
22161;DHT22;49035;48.812;11.762;2023-04-24T11:03:24;14.10;98.00
22161;DHT22;49035;48.812;11.762;2023-04-24T11:05:57;11.80;99.90
22161;DHT22;49035;48.812;11.762;2023-04-24T11:08:32;10.40;99.90
22161;DHT22;49035;48.812;11.762;2023-04-24T11:11:09;9.80;99.90
22161;DHT22;49035;48.812;11.762;2023-04-24T11:16:24;9.50;99.90
22161;DHT22;49035;48.812;11.762;2023-04-24T11:18:52;9.60;99.90
22161;DHT22;49035;48.812;11.762;2023-04-24T11:21:24;9.70;99.90
22161;DHT22;49035;48.812;11.762;2023-04-24T11:23:51;10.20;99.90
22161;DHT22;49035;48.812;11.762;2023-04-24T11:26:26;10.40;99.90
22161;DHT22;49035;48.812;11.762;2023-04-24T11:29:07;10.60;99.90
22161;DHT22;49035;48.812;11.762;2023-04-24T11:31:38;11.40;99.90
22161;DHT22;49035;48.812;11.762;2023-04-24T11:34:11;12.20;99.90
22161;DHT22;49035;48.812;11.762;2023-04-24T11:36:38;12.60;99.90
22161;DHT22;49035;48.812;11.762;2023-04-24T11:39:04;12.80;99.90
22161;DHT22;49035;48.812;11.762;2023-04-24T11:41:29;13.60;99.90
22161;DHT22;49035;48.812;11.762;2023-04-24T11:43:56;14.40;99.90
22161;DHT22;49035;48.812;11.762;2023-04-24T11:46:22;15.30;99.90
22161;DHT22;49035;48.812;11.762;2023-04-24T11:48:47;15.50;99.90
22161;DHT22;49035;48.812;11.762;2023-04-24T11:51:14;15.60;99.90
22161;DHT22;49035;48.812;11.762;2023-04-24T11:53:39;15.70;99.90
22161;DHT22;49035;48.812;11.762;2023-04-24T11:56:05;15.70;99.90
22161;DHT22;49035;48.812;11.762;2023-04-24T11:58:40;16.20;99.90
22161;DHT22;49035;48.812;11.762;2023-04-24T12:01:06;16.50;99.90
22161;DHT22;49035;48.812;11.762;2023-04-24T12:03:31;16.80;99.90
22161;DHT22;49035;48.812;11.762;2023-04-24T12:06:07;17.20;99.80
22161;DHT22;49035;48.812;11.762;2023-04-24T12:08:34;17.30;97.90
22161;DHT22;49035;48.812;11.762;2023-04-24T12:11:04;16.70;98.70
22161;DHT22;49035;48.812;11.762;2023-04-24T12:13:32;16.30;97.00
22161;DHT22;49035;48.812;11.762;2023-04-24T12:15:58;15.40;97.60
22161;DHT22;49035;48.812;11.762;2023-04-24T12:18:24;15.10;98.70
22161;DHT22;49035;48.812;11.762;2023-04-24T12:20:51;14.90;99.30
22161;DHT22;49035;48.812;11.762;2023-04-24T12:23:27;14.90;99.90
22161;DHT22;49035;48.812;11.762;2023-04-24T12:26:00;15.30;99.90
22161;DHT22;49035;48.812;11.762;2023-04-24T12:28:35;15.90;98.90
22161;DHT22;49035;48.812;11.762;2023-04-24T12:31:01;16.10;94.20
22161;DHT22;49035;48.812;11.762;2023-04-24T12:33:27;16.40;95.70
22161;DHT22;49035;48.812;11.762;2023-04-24T12:35:53;16.50;93.60
22161;DHT22;49035;48.812;11.762;2023-04-24T12:38:24;16.40;92.80
22161;DHT22;49035;48.812;11.762;2023-04-24T12:41:02;16.20;93.30
22161;DHT22;49035;48.812;11.762;2023-04-24T12:43:28;16.20;90.30
22161;DHT22;49035;48.812;11.762;2023-04-24T12:45:54;16.00;90.50
22161;DHT22;49035;48.812;11.762;2023-04-24T12:48:19;15.30;87.90
22161;DHT22;49035;48.812;11.762;2023-04-24T12:50:46;14.70;90.80
22161;DHT22;49035;48.812;11.762;2023-04-24T12:53:11;14.10;89.90
22161;DHT22;49035;48.812;11.762;2023-04-24T12:55:37;14.00;90.50
22161;DHT22;49035;48.812;11.762;2023-04-24T12:58:03;14.30;89.90
22161;DHT22;49035;48.812;11.762;2023-04-24T13:00:28;14.80;92.80
22161;DHT22;49035;48.812;11.762;2023-04-24T13:02:54;15.40;92.10
22161;DHT22;49035;48.812;11.762;2023-04-24T13:05:20;15.40;79.50
22161;DHT22;49035;48.812;11.762;2023-04-24T13:07:45;14.90;80.90
22161;DHT22;49035;48.812;11.762;2023-04-24T13:10:11;14.70;84.00
22161;DHT22;49035;48.812;11.762;2023-04-24T13:12:39;14.40;84.80
22161;DHT22;49035;48.812;11.762;2023-04-24T13:15:05;14.70;82.40
22161;DHT22;49035;48.812;11.762;2023-04-24T13:17:30;15.10;81.70
22161;DHT22;49035;48.812;11.762;2023-04-24T13:19:56;15.10;82.80
22161;DHT22;49035;48.812;11.762;2023-04-24T13:22:22;15.10;81.40
22161;DHT22;49035;48.812;11.762;2023-04-24T13:24:47;15.50;79.70
22161;DHT22;49035;48.812;11.762;2023-04-24T13:27:16;15.10;78.50
22161;DHT22;49035;48.812;11.762;2023-04-24T13:29:42;14.60;79.70
22161;DHT22;49035;48.812;11.762;2023-04-24T13:32:08;14.10;85.20
22161;DHT22;49035;48.812;11.762;2023-04-24T13:34:34;13.80;87.90
22161;DHT22;49035;48.812;11.762;2023-04-24T13:37:00;13.40;83.60
22161;DHT22;49035;48.812;11.762;2023-04-24T13:39:26;13.00;79.70
22161;DHT22;49035;48.812;11.762;2023-04-24T13:41:53;12.70;78.90
22161;DHT22;49035;48.812;11.762;2023-04-24T13:44:20;12.60;82.10
22161;DHT22;49035;48.812;11.762;2023-04-24T13:46:47;12.80;82.60
22161;DHT22;49035;48.812;11.762;2023-04-24T13:49:14;13.00;82.40
22161;DHT22;49035;48.812;11.762;2023-04-24T13:51:41;13.40;83.50
22161;DHT22;49035;48.812;11.762;2023-04-24T13:54:06;13.70;82.00
22161;DHT22;49035;48.812;11.762;2023-04-24T13:56:32;14.00;85.40
22161;DHT22;49035;48.812;11.762;2023-04-24T13:58:58;14.30;80.30
22161;DHT22;49035;48.812;11.762;2023-04-24T14:01:23;14.60;78.20
22161;DHT22;49035;48.812;11.762;2023-04-24T14:03:52;15.00;80.70
22161;DHT22;49035;48.812;11.762;2023-04-24T14:06:19;15.30;76.00
22161;DHT22;49035;48.812;11.762;2023-04-24T14:08:44;15.50;78.60
22161;DHT22;49035;48.812;11.762;2023-04-24T14:11:10;15.10;80.50
22161;DHT22;49035;48.812;11.762;2023-04-24T14:13:36;15.10;78.00
22161;DHT22;49035;48.812;11.762;2023-04-24T14:16:03;14.60;76.80
22161;DHT22;49035;48.812;11.762;2023-04-24T14:18:29;14.60;79.90
22161;DHT22;49035;48.812;11.762;2023-04-24T14:20:55;14.40;79.30
22161;DHT22;49035;48.812;11.762;2023-04-24T14:23:20;14.30;79.00
22161;DHT22;49035;48.812;11.762;2023-04-24T14:25:46;14.00;78.20
22161;DHT22;49035;48.812;11.762;2023-04-24T14:28:16;14.10;82.80
22161;DHT22;49035;48.812;11.762;2023-04-24T14:30:42;14.10;80.30
22161;DHT22;49035;48.812;11.762;2023-04-24T14:33:07;14.00;74.00
22161;DHT22;49035;48.812;11.762;2023-04-24T14:35:33;13.90;74.80
22161;DHT22;49035;48.812;11.762;2023-04-24T14:38:00;14.10;77.90
22161;DHT22;49035;48.812;11.762;2023-04-24T14:40:26;14.60;78.90
22161;DHT22;49035;48.812;11.762;2023-04-24T14:42:51;14.70;78.40
22161;DHT22;49035;48.812;11.762;2023-04-24T14:45:17;15.00;74.90
22161;DHT22;49035;48.812;11.762;2023-04-24T14:47:43;14.80;74.40
22161;DHT22;49035;48.812;11.762;2023-04-24T14:50:09;14.80;75.50
22161;DHT22;49035;48.812;11.762;2023-04-24T14:52:35;14.50;74.90
22161;DHT22;49035;48.812;11.762;2023-04-24T14:55:01;14.20;79.80
22161;DHT22;49035;48.812;11.762;2023-04-24T14:57:26;13.90;80.00
22161;DHT22;49035;48.812;11.762;2023-04-24T14:59:52;13.50;79.90
22161;DHT22;49035;48.812;11.762;2023-04-24T15:02:18;13.10;82.50
22161;DHT22;49035;48.812;11.762;2023-04-24T15:04:44;12.70;81.40
22161;DHT22;49035;48.812;11.762;2023-04-24T15:07:09;12.60;83.20
22161;DHT22;49035;48.812;11.762;2023-04-24T15:09:35;12.40;83.30
22161;DHT22;49035;48.812;11.762;2023-04-24T15:12:00;12.20;83.40
22161;DHT22;49035;48.812;11.762;2023-04-24T15:14:27;12.20;85.70
22161;DHT22;49035;48.812;11.762;2023-04-24T15:16:52;12.30;87.10
22161;DHT22;49035;48.812;11.762;2023-04-24T15:19:18;12.40;88.40
22161;DHT22;49035;48.812;11.762;2023-04-24T15:21:43;12.50;88.00